Time;durP1;ratioP1;P1;durP2;ratioP2;P2;SDS_P1;SDS_P2;PMS_P1;PMS_P2;Temp;Humidity;BMP_temperature;BMP_pressure;BME280_temperature;BME280_humidity;BME280_pressure;Samples;Min_cycle;Max_cycle;Signal;HPM_P1;HPM_P2
2022/03/15 00:00:34;;;;;;;53.53;25.67;;;2.40;99.90;;;;;;4411318;32;20236;-74
2022/03/15 00:03:01;;;;;;;52.03;24.33;;;2.30;99.90;;;;;;4407522;32;20194;-74
2022/03/15 00:05:29;;;;;;;52.10;25.17;;;2.30;99.90;;;;;;4395781;32;20201;-74
2022/03/15 00:07:56;;;;;;;53.07;25.77;;;2.30;99.90;;;;;;4418512;32;20171;-74
2022/03/15 00:10:23;;;;;;;51.73;25.53;;;2.30;99.90;;;;;;4412921;32;20645;-74
2022/03/15 00:12:51;;;;;;;54.77;25.67;;;2.30;99.90;;;;;;4395426;32;20228;-74
2022/03/15 00:15:19;;;;;;;51.23;24.03;;;2.30;99.90;;;;;;4396136;32;20427;-74
2022/03/15 00:17:55;;;;;;;54.93;26.53;;;2.30;99.90;;;;;;4410183;32;20211;-74
2022/03/15 00:20:23;;;;;;;52.93;25.03;;;2.30;99.90;;;;;;4396139;32;20239;-74
2022/03/15 00:22:51;;;;;;;58.27;25.33;;;2.30;99.90;;;;;;4396230;32;20201;-74
2022/03/15 00:25:19;;;;;;;54.37;25.43;;;2.30;99.90;;;;;;4395215;32;20186;-74
2022/03/15 00:27:48;;;;;;;54.30;25.93;;;2.30;99.90;;;;;;4409597;32;20226;-74
2022/03/15 00:30:15;;;;;;;54.47;25.47;;;2.20;99.90;;;;;;4395847;32;20419;-74
2022/03/15 00:32:43;;;;;;;53.07;25.77;;;2.20;99.90;;;;;;4396140;32;20190;-74
2022/03/15 00:35:16;;;;;;;52.97;26.03;;;2.20;99.90;;;;;;4395504;32;20456;-74
2022/03/15 00:37:51;;;;;;;53.03;25.57;;;2.10;99.90;;;;;;4382964;32;20225;-74
2022/03/15 00:40:20;;;;;;;56.80;26.13;;;2.10;99.90;;;;;;4395744;32;20448;-73
2022/03/15 00:42:49;;;;;;;51.30;25.20;;;2.10;99.90;;;;;;4395497;32;20182;-74
2022/03/15 00:45:18;;;;;;;53.20;25.93;;;2.00;99.90;;;;;;4395160;32;20171;-74
2022/03/15 00:47:46;;;;;;;51.90;25.40;;;1.90;99.90;;;;;;4409304;32;20146;-74
2022/03/15 00:50:22;;;;;;;52.90;26.73;;;1.90;99.90;;;;;;4395395;32;20236;-74
2022/03/15 00:52:50;;;;;;;55.90;26.70;;;1.80;99.90;;;;;;4395876;32;20179;-73
2022/03/15 00:55:17;;;;;;;54.67;26.50;;;1.80;99.90;;;;;;4395240;32;20253;-73
2022/03/15 00:57:44;;;;;;;54.57;26.60;;;1.80;99.90;;;;;;4395942;32;20271;-74
2022/03/15 01:00:13;;;;;;;56.53;26.63;;;1.70;99.90;;;;;;4395572;32;20578;-74
2022/03/15 01:02:44;;;;;;;50.57;25.93;;;1.80;99.90;;;;;;4394987;32;20452;-73
2022/03/15 01:05:11;;;;;;;56.03;27.07;;;1.70;99.90;;;;;;4409025;32;20432;-73
2022/03/15 01:07:39;;;;;;;62.00;26.63;;;1.70;99.90;;;;;;4395300;32;20179;-73
2022/03/15 01:10:07;;;;;;;55.47;27.07;;;1.70;99.90;;;;;;4396818;32;20167;-73
2022/03/15 01:12:34;;;;;;;56.40;26.30;;;1.70;99.90;;;;;;4394835;32;20234;-73
2022/03/15 01:15:02;;;;;;;52.33;26.30;;;1.70;99.90;;;;;;4395884;32;20234;-73
2022/03/15 01:17:32;;;;;;;58.43;26.73;;;1.70;99.90;;;;;;4395043;32;20185;-73
2022/03/15 01:19:59;;;;;;;57.10;27.67;;;1.70;99.90;;;;;;4394719;32;20183;-73
2022/03/15 01:22:29;;;;;;;59.77;26.77;;;1.70;99.90;;;;;;4395321;32;20167;-73
2022/03/15 01:24:56;;;;;;;54.73;26.30;;;1.70;99.90;;;;;;4394871;32;20434;-73
2022/03/15 01:27:25;;;;;;;53.17;26.97;;;1.70;99.90;;;;;;4404803;32;20447;-73
2022/03/15 01:29:53;;;;;;;54.20;26.60;;;1.80;99.90;;;;;;4409652;32;20256;-73
2022/03/15 01:32:20;;;;;;;59.70;27.30;;;1.80;99.90;;;;;;4423516;32;20151;-73
2022/03/15 01:34:47;;;;;;;53.73;26.80;;;1.80;99.90;;;;;;4424133;32;20177;-73
2022/03/15 01:37:14;;;;;;;57.20;26.60;;;1.80;99.90;;;;;;4410124;32;20247;-73
2022/03/15 01:39:42;;;;;;;56.27;27.13;;;1.80;99.90;;;;;;4409864;32;20174;-73
2022/03/15 01:42:12;;;;;;;56.03;27.53;;;1.70;99.90;;;;;;4409705;32;20182;-73
2022/03/15 01:44:46;;;;;;;53.50;26.63;;;1.80;99.90;;;;;;4409757;32;20175;-73
2022/03/15 01:47:13;;;;;;;55.23;27.17;;;1.70;99.90;;;;;;4409949;32;20179;-73
2022/03/15 01:49:43;;;;;;;53.00;26.10;;;1.70;99.90;;;;;;4409507;32;20170;-73
2022/03/15 01:52:15;;;;;;;55.83;26.63;;;1.80;99.90;;;;;;4409753;32;20178;-73
2022/03/15 01:54:44;;;;;;;53.83;26.27;;;1.70;99.90;;;;;;4408297;32;20167;-73
2022/03/15 01:57:11;;;;;;;59.70;28.27;;;1.80;99.90;;;;;;4423525;32;20179;-73
2022/03/15 01:59:39;;;;;;;64.53;28.77;;;1.80;99.90;;;;;;4409837;32;20219;-73
2022/03/15 02:02:06;;;;;;;56.03;26.50;;;1.80;99.90;;;;;;4409982;32;20186;-73
2022/03/15 02:04:36;;;;;;;56.83;27.53;;;1.80;99.90;;;;;;4424039;32;20173;-73
2022/03/15 02:07:05;;;;;;;59.57;27.60;;;1.70;99.90;;;;;;4410696;32;20193;-73
2022/03/15 02:09:33;;;;;;;59.00;27.10;;;1.80;99.90;;;;;;4409907;32;20178;-73
2022/03/15 02:12:03;;;;;;;57.27;27.07;;;1.70;99.90;;;;;;4409655;32;20560;-73
2022/03/15 02:14:31;;;;;;;54.83;26.93;;;1.70;99.90;;;;;;4409524;32;20170;-73
2022/03/15 02:16:58;;;;;;;58.20;26.93;;;1.60;99.90;;;;;;4409335;32;20224;-73
2022/03/15 02:19:27;;;;;;;59.47;28.77;;;1.60;99.90;;;;;;4409995;32;20217;-73
2022/03/15 02:21:57;;;;;;;50.53;26.13;;;1.60;99.90;;;;;;4423533;32;20174;-73
2022/03/15 02:24:24;;;;;;;56.30;27.83;;;1.60;99.90;;;;;;4423472;32;20218;-73
2022/03/15 02:26:54;;;;;;;56.93;26.67;;;1.60;99.90;;;;;;4409564;32;20194;-73
2022/03/15 02:29:22;;;;;;;58.63;26.47;;;1.60;99.90;;;;;;4409821;32;20171;-73
2022/03/15 02:31:53;;;;;;;52.53;26.77;;;1.60;99.90;;;;;;4426168;32;20219;-73
2022/03/15 02:34:21;;;;;;;55.90;27.47;;;1.50;99.90;;;;;;4412514;32;20399;-73
2022/03/15 02:36:48;;;;;;;59.00;27.77;;;1.50;99.90;;;;;;4412434;32;20182;-73
2022/03/15 02:39:16;;;;;;;58.17;27.53;;;1.50;99.90;;;;;;4426471;32;20220;-74
2022/03/15 02:41:43;;;;;;;57.33;27.20;;;1.50;99.90;;;;;;4426391;32;20407;-73
2022/03/15 02:44:11;;;;;;;59.30;28.23;;;1.50;99.90;;;;;;4412375;32;20390;-73
2022/03/15 02:46:39;;;;;;;57.90;26.60;;;1.50;99.90;;;;;;4411981;32;20178;-73
2022/03/15 02:49:09;;;;;;;57.87;26.50;;;1.50;99.90;;;;;;4412478;32;20223;-73
2022/03/15 02:51:36;;;;;;;60.17;27.47;;;1.40;99.90;;;;;;4412954;32;20449;-73
2022/03/15 02:54:08;;;;;;;56.00;27.03;;;1.40;99.90;;;;;;4412397;32;20215;-73
2022/03/15 02:56:40;;;;;;;52.53;26.90;;;1.30;99.90;;;;;;4412737;32;20216;-73
2022/03/15 02:59:14;;;;;;;59.67;27.37;;;1.40;99.90;;;;;;4413606;32;20182;-73
2022/03/15 03:01:43;;;;;;;55.87;26.60;;;1.30;99.90;;;;;;4412517;32;20154;-73
2022/03/15 03:04:15;;;;;;;56.63;27.37;;;1.30;99.90;;;;;;4426257;32;20469;-73
2022/03/15 03:06:49;;;;;;;56.83;27.70;;;1.30;99.90;;;;;;4412581;32;20204;-73
2022/03/15 03:09:16;;;;;;;57.70;28.13;;;1.30;99.90;;;;;;4411975;32;20468;-73
2022/03/15 03:11:44;;;;;;;58.53;27.00;;;1.30;99.90;;;;;;4412338;32;20193;-73
2022/03/15 03:14:14;;;;;;;54.37;26.83;;;1.20;99.90;;;;;;4426691;32;20504;-73
2022/03/15 03:16:41;;;;;;;60.30;27.67;;;1.20;99.90;;;;;;4426276;32;20572;-73
2022/03/15 03:19:09;;;;;;;54.53;26.50;;;1.10;99.90;;;;;;4426268;32;20374;-74
2022/03/15 03:21:37;;;;;;;57.97;26.97;;;1.10;99.90;;;;;;4411795;32;20565;-73
2022/03/15 03:24:08;;;;;;;59.43;27.93;;;1.00;99.90;;;;;;4426625;32;20201;-73
2022/03/15 03:26:51;;;;;;;52.07;26.23;;;0.90;99.90;;;;;;4410464;32;20595;-73
2022/03/15 03:29:18;;;;;;;60.40;28.10;;;0.90;99.90;;;;;;4400155;32;20185;-73
2022/03/15 03:31:46;;;;;;;61.40;28.43;;;0.90;99.90;;;;;;4411922;32;20222;-73
2022/03/15 03:34:22;;;;;;;58.37;28.00;;;0.80;99.90;;;;;;4399895;32;20170;-73
2022/03/15 03:36:57;;;;;;;60.77;27.60;;;0.80;99.90;;;;;;4411585;32;20178;-73
2022/03/15 03:39:32;;;;;;;56.47;26.90;;;0.70;99.90;;;;;;4411954;32;20252;-73
2022/03/15 03:42:09;;;;;;;56.97;28.17;;;0.70;99.90;;;;;;4410425;32;20174;-73
2022/03/15 03:44:37;;;;;;;55.90;27.93;;;0.70;99.90;;;;;;4411707;32;20250;-73
2022/03/15 03:47:05;;;;;;;64.60;29.53;;;0.70;99.90;;;;;;4411446;32;20201;-73
2022/03/15 03:49:35;;;;;;;58.13;28.67;;;0.70;99.90;;;;;;4411102;32;20178;-73
2022/03/15 03:52:15;;;;;;;59.53;28.27;;;0.70;99.90;;;;;;4425829;32;20147;-73
2022/03/15 03:54:45;;;;;;;61.47;28.13;;;0.60;99.90;;;;;;4410841;32;20217;-74
2022/03/15 03:57:19;;;;;;;59.47;28.33;;;0.50;99.90;;;;;;4410792;32;20234;-73
2022/03/15 03:59:48;;;;;;;60.03;29.70;;;0.50;99.90;;;;;;4411496;32;20178;-74
2022/03/15 04:02:16;;;;;;;56.37;27.63;;;0.40;99.90;;;;;;4411153;32;20240;-74
2022/03/15 04:04:44;;;;;;;62.93;28.50;;;0.40;99.90;;;;;;4410725;32;20190;-74
2022/03/15 04:07:15;;;;;;;61.40;28.60;;;0.30;99.90;;;;;;4410706;32;20197;-73
2022/03/15 04:09:42;;;;;;;60.00;28.03;;;0.30;99.90;;;;;;4411918;32;20285;-74
2022/03/15 04:12:10;;;;;;;63.20;29.13;;;0.30;99.90;;;;;;4411660;32;20201;-74
2022/03/15 04:14:37;;;;;;;64.80;30.20;;;0.30;99.90;;;;;;4411316;32;20466;-74
2022/03/15 04:17:07;;;;;;;59.40;27.57;;;0.30;99.90;;;;;;4425302;32;20496;-74
2022/03/15 04:19:35;;;;;;;58.60;27.57;;;0.30;99.90;;;;;;4411025;32;20250;-74
2022/03/15 04:22:03;;;;;;;56.17;26.63;;;0.30;99.90;;;;;;4410586;32;20229;-74
2022/03/15 04:24:31;;;;;;;55.30;26.90;;;0.40;99.90;;;;;;4424440;32;20412;-73
2022/03/15 04:26:59;;;;;;;54.37;26.10;;;0.40;99.90;;;;;;4424847;32;20442;-73
2022/03/15 04:29:27;;;;;;;53.07;25.83;;;0.40;99.90;;;;;;4411052;32;20497;-73
2022/03/15 04:31:55;;;;;;;56.37;25.40;;;0.50;99.90;;;;;;4410483;32;20443;-74
2022/03/15 04:34:22;;;;;;;55.60;25.97;;;0.50;99.90;;;;;;4410349;32;20170;-73
2022/03/15 04:36:49;;;;;;;54.40;25.40;;;0.50;99.90;;;;;;4410693;32;20182;-73
2022/03/15 04:39:16;;;;;;;56.43;26.50;;;0.60;99.90;;;;;;4425128;32;20579;-73
2022/03/15 04:41:45;;;;;;;50.07;24.57;;;0.70;99.90;;;;;;4410716;32;20213;-73
2022/03/15 04:44:13;;;;;;;55.03;24.87;;;0.70;99.90;;;;;;4411380;32;20455;-73
2022/03/15 04:46:40;;;;;;;56.97;26.33;;;0.80;99.90;;;;;;4409932;32;20174;-73
2022/03/15 04:49:07;;;;;;;57.97;25.90;;;0.80;99.90;;;;;;4410101;32;20443;-73
2022/03/15 04:51:34;;;;;;;56.77;25.90;;;0.80;99.90;;;;;;4410228;32;20230;-73
2022/03/15 04:54:02;;;;;;;53.77;26.27;;;0.80;99.90;;;;;;4409668;32;20178;-73
2022/03/15 04:56:30;;;;;;;54.07;25.80;;;0.80;99.90;;;;;;4410721;32;20210;-73
2022/03/15 04:59:02;;;;;;;58.27;27.53;;;0.80;99.90;;;;;;4424552;32;20158;-73
2022/03/15 05:01:29;;;;;;;54.00;26.47;;;0.80;99.90;;;;;;4424336;32;20172;-73
2022/03/15 05:03:57;;;;;;;59.07;27.63;;;0.70;99.90;;;;;;4424960;32;20412;-73
2022/03/15 05:06:24;;;;;;;60.03;27.07;;;0.70;99.90;;;;;;4410216;32;20521;-73
2022/03/15 05:08:51;;;;;;;57.23;27.00;;;0.70;99.90;;;;;;4411166;32;20226;-73
2022/03/15 05:11:19;;;;;;;58.77;27.90;;;0.70;99.90;;;;;;4410462;32;20202;-74
2022/03/15 05:13:48;;;;;;;57.80;27.80;;;0.70;99.90;;;;;;4410712;32;20241;-73
2022/03/15 05:16:18;;;;;;;59.13;27.63;;;0.70;99.90;;;;;;4410046;32;20513;-73
2022/03/15 05:18:47;;;;;;;62.37;28.07;;;0.60;99.90;;;;;;4424021;32;20147;-73
2022/03/15 05:21:17;;;;;;;59.63;28.43;;;0.60;99.90;;;;;;4410236;32;20245;-73
2022/03/15 05:23:45;;;;;;;55.87;28.97;;;0.70;99.90;;;;;;4397417;32;20174;-74
2022/03/15 05:26:15;;;;;;;61.20;29.07;;;0.60;99.90;;;;;;4409592;32;20213;-73
2022/03/15 05:28:43;;;;;;;58.10;28.97;;;0.60;99.90;;;;;;4409681;32;20178;-74
2022/03/15 05:31:10;;;;;;;63.33;28.90;;;0.60;99.90;;;;;;4410068;32;20260;-73
2022/03/15 05:33:38;;;;;;;61.33;29.20;;;0.60;99.90;;;;;;4423464;32;20179;-73
2022/03/15 05:36:05;;;;;;;61.93;29.17;;;0.50;99.90;;;;;;4410211;32;20170;-73
2022/03/15 05:38:32;;;;;;;63.73;30.27;;;0.60;99.90;;;;;;4410693;32;20513;-73
2022/03/15 05:40:59;;;;;;;59.37;30.17;;;0.50;99.90;;;;;;4409659;32;20552;-73
2022/03/15 05:43:46;;;;;;;63.97;29.07;;;0.50;99.90;;;;;;4412816;32;20182;-73
2022/03/15 05:46:13;;;;;;;59.93;28.93;;;0.60;99.90;;;;;;4407064;32;20224;-73
2022/03/15 05:48:44;;;;;;;60.13;29.57;;;0.60;99.90;;;;;;4407324;32;20442;-73
2022/03/15 05:51:11;;;;;;;59.40;29.47;;;0.60;99.90;;;;;;4408406;32;20194;-73
2022/03/15 05:53:38;;;;;;;64.50;30.13;;;0.70;99.90;;;;;;4408742;32;20493;-73
2022/03/15 05:56:06;;;;;;;64.23;29.77;;;0.70;99.90;;;;;;4406759;32;20216;-73
2022/03/15 05:58:46;;;;;;;63.93;29.97;;;0.80;99.90;;;;;;4406591;32;20175;-73
2022/03/15 06:01:13;;;;;;;64.87;31.27;;;0.90;99.90;;;;;;4408701;32;20151;-74
2022/03/15 06:03:41;;;;;;;59.67;28.93;;;1.00;99.90;;;;;;4408362;32;20190;-73
2022/03/15 06:06:08;;;;;;;60.60;29.73;;;1.10;99.90;;;;;;4409037;32;20239;-73
2022/03/15 06:08:39;;;;;;;54.53;26.87;;;1.30;99.90;;;;;;4410120;32;20171;-74
2022/03/15 06:11:16;;;;;;;59.83;27.93;;;1.40;99.90;;;;;;4409954;32;20224;-74
2022/03/15 06:13:43;;;;;;;56.30;26.40;;;1.50;99.90;;;;;;4409685;32;20544;-73
2022/03/15 06:16:11;;;;;;;55.40;25.03;;;1.80;99.90;;;;;;4409863;32;20188;-73
2022/03/15 06:18:38;;;;;;;52.00;24.80;;;2.00;99.90;;;;;;4410144;32;20190;-73
2022/03/15 06:21:05;;;;;;;60.17;27.80;;;2.10;99.90;;;;;;4409796;32;20182;-73
2022/03/15 06:23:36;;;;;;;57.33;27.23;;;2.20;99.90;;;;;;4410634;32;20233;-73
2022/03/15 06:26:23;;;;;;;48.33;23.60;;;2.30;99.90;;;;;;4409628;32;20174;-74
2022/03/15 06:28:58;;;;;;;48.50;23.80;;;2.40;99.90;;;;;;4410992;32;20519;-73
2022/03/15 06:31:27;;;;;;;54.77;25.63;;;2.50;99.90;;;;;;4411616;32;20139;-73
2022/03/15 06:33:53;;;;;;;46.23;24.03;;;2.70;99.90;;;;;;4397697;32;20201;-73
2022/03/15 06:36:21;;;;;;;55.83;25.83;;;3.00;99.90;;;;;;4409569;32;20176;-73
2022/03/15 06:38:49;;;;;;;42.73;22.47;;;3.10;99.90;;;;;;4409528;32;20187;-73
2022/03/15 06:41:19;;;;;;;48.73;24.07;;;3.20;99.90;;;;;;4409386;32;20191;-73
2022/03/15 06:43:54;;;;;;;60.23;28.50;;;3.40;99.90;;;;;;4409201;32;20183;-73
2022/03/15 06:46:21;;;;;;;64.47;31.27;;;3.60;99.90;;;;;;4410103;32;20605;-74
2022/03/15 06:48:52;;;;;;;65.50;32.03;;;3.70;99.90;;;;;;4409387;32;20176;-73
2022/03/15 06:51:22;;;;;;;62.30;31.13;;;3.90;99.90;;;;;;4410964;32;20193;-73
2022/03/15 06:53:49;;;;;;;63.77;31.73;;;4.00;99.90;;;;;;4409632;32;20514;-74
2022/03/15 06:56:16;;;;;;;67.57;31.17;;;4.10;99.90;;;;;;4409497;32;20183;-73
2022/03/15 06:58:43;;;;;;;61.33;30.67;;;4.10;99.90;;;;;;4409713;32;20179;-73
2022/03/15 07:01:12;;;;;;;61.47;30.13;;;4.10;99.90;;;;;;4410956;32;20166;-74
2022/03/15 07:03:40;;;;;;;48.13;25.13;;;4.20;99.90;;;;;;4409571;32;20171;-74
2022/03/15 07:06:07;;;;;;;58.83;26.23;;;4.30;99.90;;;;;;4411337;32;20260;-73
2022/03/15 07:08:34;;;;;;;49.77;23.60;;;4.40;99.90;;;;;;4408915;32;20178;-74
2022/03/15 07:11:01;;;;;;;47.93;23.77;;;4.50;99.90;;;;;;4409286;32;20202;-73
2022/03/15 07:13:28;;;;;;;43.67;22.87;;;4.60;99.90;;;;;;4410428;32;20175;-74
2022/03/15 07:15:55;;;;;;;44.47;22.80;;;4.70;99.90;;;;;;4411184;32;20538;-73
2022/03/15 07:18:22;;;;;;;42.30;21.77;;;4.80;99.90;;;;;;4410405;32;20517;-73
2022/03/15 07:20:49;;;;;;;42.97;20.63;;;4.90;99.90;;;;;;4409178;32;20529;-73
2022/03/15 07:23:17;;;;;;;43.50;21.63;;;5.10;99.90;;;;;;4411713;32;20144;-73
2022/03/15 07:25:44;;;;;;;42.10;21.43;;;5.20;99.90;;;;;;4408789;32;20572;-73
2022/03/15 07:28:11;;;;;;;44.37;21.27;;;5.30;99.90;;;;;;4410113;32;20180;-73
2022/03/15 07:30:38;;;;;;;45.03;21.27;;;5.50;99.90;;;;;;4409771;32;20219;-74
2022/03/15 07:33:05;;;;;;;39.30;20.53;;;5.70;99.90;;;;;;4408513;32;20189;-73
2022/03/15 07:35:32;;;;;;;37.97;20.23;;;5.80;99.90;;;;;;4409383;32;20176;-73
2022/03/15 07:38:00;;;;;;;38.70;20.30;;;5.90;99.90;;;;;;4408909;32;20233;-73
2022/03/15 07:40:28;;;;;;;42.57;19.53;;;6.00;99.90;;;;;;4409410;32;20216;-73
2022/03/15 07:42:56;;;;;;;39.37;19.70;;;6.10;99.90;;;;;;4408714;32;20587;-73
2022/03/15 07:45:23;;;;;;;39.37;20.20;;;6.20;99.90;;;;;;4410201;32;20192;-73
2022/03/15 07:47:51;;;;;;;34.97;19.13;;;6.30;99.90;;;;;;4411372;32;20217;-73
2022/03/15 07:50:18;;;;;;;43.77;20.07;;;6.40;99.90;;;;;;4412117;32;20245;-74
2022/03/15 07:52:47;;;;;;;40.73;20.13;;;6.60;99.90;;;;;;4425270;32;20544;-73
2022/03/15 07:55:15;;;;;;;41.40;19.37;;;6.70;99.90;;;;;;4411501;32;20215;-73
2022/03/15 07:57:42;;;;;;;39.13;19.87;;;6.80;99.90;;;;;;4425281;32;20469;-73
2022/03/15 08:00:10;;;;;;;39.33;18.87;;;7.00;99.90;;;;;;4411065;32;20203;-73
2022/03/15 08:02:37;;;;;;;41.53;19.20;;;7.30;99.90;;;;;;4411568;32;20527;-73
2022/03/15 08:05:06;;;;;;;34.70;18.73;;;7.50;99.90;;;;;;4426309;32;20148;-73
2022/03/15 08:07:36;;;;;;;32.60;16.80;;;7.60;99.90;;;;;;4412848;32;20254;-74
2022/03/15 08:10:08;;;;;;;24.77;14.20;;;7.80;99.90;;;;;;4411813;32;20166;-73
2022/03/15 08:12:39;;;;;;;26.17;13.93;;;8.00;99.90;;;;;;4425200;32;20144;-72
2022/03/15 08:15:07;;;;;;;22.03;13.23;;;8.40;99.90;;;;;;4424560;32;20522;-72
2022/03/15 08:17:35;;;;;;;24.73;13.73;;;8.50;99.90;;;;;;4412170;32;20208;-73
2022/03/15 08:20:03;;;;;;;26.13;13.27;;;8.80;99.90;;;;;;4410878;32;20232;-73
2022/03/15 08:22:31;;;;;;;22.13;12.77;;;9.20;99.90;;;;;;4410657;32;20174;-74
2022/03/15 08:24:59;;;;;;;20.33;12.20;;;9.40;99.90;;;;;;4411484;32;20209;-72
2022/03/15 08:27:26;;;;;;;24.80;12.97;;;9.40;99.90;;;;;;4410981;32;20401;-72
2022/03/15 08:29:53;;;;;;;23.73;12.57;;;9.20;99.90;;;;;;4409740;32;20190;-72
2022/03/15 08:32:20;;;;;;;19.50;12.20;;;9.10;99.90;;;;;;4411469;32;20186;-71
2022/03/15 08:34:47;;;;;;;22.57;12.77;;;9.10;99.90;;;;;;4409808;32;20208;-72
2022/03/15 08:37:14;;;;;;;23.50;12.37;;;9.10;99.90;;;;;;4424185;32;20186;-71
2022/03/15 08:39:41;;;;;;;21.97;12.70;;;9.10;99.90;;;;;;4411699;32;20175;-71
2022/03/15 08:42:09;;;;;;;21.57;12.00;;;9.20;99.90;;;;;;4412248;32;20281;-72
2022/03/15 08:44:36;;;;;;;21.60;12.73;;;9.30;99.90;;;;;;4424583;32;20430;-72
2022/03/15 08:47:03;;;;;;;20.50;12.20;;;9.40;99.90;;;;;;4410283;32;20219;-72
2022/03/15 08:49:30;;;;;;;18.97;11.53;;;9.60;99.90;;;;;;4410633;32;20488;-71
2022/03/15 08:51:58;;;;;;;23.00;12.27;;;9.70;99.90;;;;;;4411676;32;20197;-76
2022/03/15 08:54:26;;;;;;;21.60;12.23;;;9.50;99.90;;;;;;4424218;32;20150;-73
2022/03/15 08:56:53;;;;;;;20.50;12.13;;;9.60;99.90;;;;;;4424083;32;20163;-72
2022/03/15 08:59:20;;;;;;;20.47;11.57;;;9.60;99.90;;;;;;4411103;32;20186;-73
2022/03/15 09:01:48;;;;;;;20.00;12.17;;;9.60;99.90;;;;;;4411010;32;20251;-73
2022/03/15 09:04:16;;;;;;;18.40;11.60;;;9.80;99.90;;;;;;4425422;32;20406;-73
2022/03/15 09:06:43;;;;;;;20.10;11.67;;;10.00;99.90;;;;;;4424701;32;20520;-73
2022/03/15 09:09:10;;;;;;;18.80;11.10;;;10.30;99.90;;;;;;4425293;32;20143;-72
2022/03/15 09:11:37;;;;;;;18.37;11.83;;;10.50;99.90;;;;;;4423855;32;20182;-72
2022/03/15 09:14:04;;;;;;;19.77;11.27;;;10.70;99.90;;;;;;4410178;32;20611;-73
2022/03/15 09:16:31;;;;;;;15.93;10.00;;;11.00;99.90;;;;;;4411062;32;20171;-72
2022/03/15 09:18:58;;;;;;;16.00;10.00;;;11.20;99.90;;;;;;4410629;32;20174;-72
2022/03/15 09:21:25;;;;;;;17.07;9.97;;;11.40;99.90;;;;;;4424245;32;20142;-71
2022/03/15 09:23:52;;;;;;;18.60;10.10;;;11.70;99.90;;;;;;4409732;32;20250;-72
2022/03/15 09:26:19;;;;;;;18.87;10.17;;;12.20;99.90;;;;;;4409064;32;20245;-73
2022/03/15 09:28:52;;;;;;;15.90;9.67;;;12.60;99.90;;;;;;4409969;32;20229;-72
2022/03/15 09:31:22;;;;;;;17.10;9.63;;;12.10;99.90;;;;;;4411298;32;20220;-71
2022/03/15 09:33:49;;;;;;;16.97;9.27;;;11.70;99.90;;;;;;4409998;32;20273;-73
2022/03/15 09:36:17;;;;;;;13.87;9.60;;;11.50;99.90;;;;;;4411486;32;20175;-73
2022/03/15 09:38:44;;;;;;;16.33;8.63;;;11.40;99.90;;;;;;4410202;32;20178;-71
2022/03/15 09:41:15;;;;;;;14.67;8.90;;;11.30;99.90;;;;;;4412208;32;20207;-71
2022/03/15 09:43:45;;;;;;;13.70;8.17;;;11.00;99.90;;;;;;4413642;32;20186;-70
2022/03/15 09:46:13;;;;;;;14.70;8.87;;;10.90;99.90;;;;;;4412690;32;20246;-71
2022/03/15 09:49:01;;;;;;;14.13;8.97;;;10.80;99.90;;;;;;4413418;32;20223;-73
2022/03/15 09:51:32;;;;;;;16.13;9.10;;;10.80;99.90;;;;;;4413378;32;20579;-71
2022/03/15 09:54:01;;;;;;;14.60;9.00;;;10.80;99.90;;;;;;4412540;32;20228;-71
2022/03/15 09:56:28;;;;;;;15.23;9.03;;;10.70;99.90;;;;;;4412502;32;20175;-72
2022/03/15 09:58:55;;;;;;;15.23;9.20;;;10.50;99.90;;;;;;4412878;32;20175;-71
2022/03/15 10:01:22;;;;;;;16.87;9.93;;;10.30;99.90;;;;;;4413021;32;20174;-71
2022/03/15 10:03:50;;;;;;;16.37;9.33;;;10.30;99.90;;;;;;4413139;32;20166;-72
2022/03/15 10:06:16;;;;;;;16.20;9.93;;;10.30;99.90;;;;;;4413792;32;20209;-73
2022/03/15 10:08:44;;;;;;;17.87;10.00;;;10.40;99.90;;;;;;4412780;32;20220;-72
2022/03/15 10:11:12;;;;;;;15.83;9.30;;;10.30;99.90;;;;;;4412789;32;20174;-73
2022/03/15 10:13:43;;;;;;;16.30;9.70;;;10.20;99.90;;;;;;4412257;32;20269;-72
2022/03/15 10:16:12;;;;;;;16.37;10.03;;;9.90;99.90;;;;;;4413184;32;20226;-72
2022/03/15 10:18:50;;;;;;;16.43;9.90;;;9.90;99.90;;;;;;4412521;32;20197;-71
2022/03/15 10:21:19;;;;;;;17.60;10.30;;;9.70;99.90;;;;;;4409709;32;20205;-71
2022/03/15 10:23:47;;;;;;;17.17;10.60;;;9.90;99.90;;;;;;4410822;32;20139;-71
2022/03/15 10:26:25;;;;;;;18.83;11.07;;;9.90;99.90;;;;;;4397154;32;20179;-71
2022/03/15 10:28:54;;;;;;;19.03;11.03;;;9.90;99.90;;;;;;4399524;32;20162;-72
2022/03/15 10:31:23;;;;;;;20.53;11.40;;;9.90;99.90;;;;;;4426360;32;20181;-73
2022/03/15 10:33:54;;;;;;;20.30;11.43;;;9.80;99.90;;;;;;4411947;32;20237;-73
2022/03/15 10:36:22;;;;;;;20.07;11.57;;;9.80;99.90;;;;;;4412815;32;20256;-73
2022/03/15 10:39:00;;;;;;;19.07;11.17;;;9.70;99.90;;;;;;4424713;32;20615;-73
2022/03/15 10:41:29;;;;;;;19.30;11.57;;;9.80;99.90;;;;;;4412992;32;20248;-72
2022/03/15 10:44:00;;;;;;;21.30;12.03;;;9.80;99.90;;;;;;4424693;32;20174;-73
2022/03/15 10:46:30;;;;;;;19.53;11.30;;;9.80;99.90;;;;;;4424660;32;20175;-72
2022/03/15 10:49:02;;;;;;;19.47;11.90;;;9.90;99.90;;;;;;4413106;32;20239;-73
2022/03/15 10:51:30;;;;;;;20.97;11.63;;;9.80;99.90;;;;;;4426175;32;20200;-73
2022/03/15 10:54:16;;;;;;;22.03;11.23;;;9.90;99.90;;;;;;4411854;32;20237;-72
2022/03/15 10:56:53;;;;;;;22.87;12.23;;;10.20;99.90;;;;;;4425717;32;20220;-72
2022/03/15 10:59:21;;;;;;;20.60;12.40;;;10.30;99.90;;;;;;4412055;32;20170;-73
2022/03/15 11:01:50;;;;;;;21.90;12.93;;;10.40;99.90;;;;;;4411382;32;20263;-72
2022/03/15 11:04:18;;;;;;;19.97;12.23;;;10.50;99.90;;;;;;4411687;32;20186;-72
2022/03/15 11:06:50;;;;;;;22.30;12.50;;;10.60;99.90;;;;;;4425606;32;20536;-72
2022/03/15 11:09:25;;;;;;;22.93;13.53;;;10.70;99.90;;;;;;4412432;32;20182;-72
2022/03/15 11:12:03;;;;;;;24.40;12.80;;;11.00;99.90;;;;;;4412550;32;20174;-72
2022/03/15 11:14:42;;;;;;;25.10;13.27;;;11.20;99.90;;;;;;4427279;32;20180;-73
2022/03/15 11:17:13;;;;;;;21.03;12.60;;;11.30;99.90;;;;;;4425663;32;20172;-73
2022/03/15 11:19:45;;;;;;;21.33;12.97;;;11.30;99.90;;;;;;4396952;32;20178;-72
2022/03/15 11:22:20;;;;;;;23.70;13.57;;;11.40;99.90;;;;;;4397045;32;20179;-72
2022/03/15 11:25:06;;;;;;;21.27;13.10;;;11.40;99.90;;;;;;4396362;32;20173;-72
2022/03/15 11:27:40;;;;;;;22.77;13.40;;;11.50;99.90;;;;;;4408848;32;20182;-72
2022/03/15 11:30:11;;;;;;;22.30;13.90;;;11.60;99.90;;;;;;4408718;32;20167;-74
2022/03/15 11:32:39;;;;;;;23.43;13.97;;;11.60;99.90;;;;;;4397653;32;20486;-72
2022/03/15 11:35:09;;;;;;;24.27;13.33;;;11.90;99.90;;;;;;4410526;32;20155;-73
2022/03/15 11:37:38;;;;;;;25.93;14.27;;;12.10;99.90;;;;;;4396543;32;20174;-73
2022/03/15 11:40:08;;;;;;;21.57;13.53;;;12.10;99.90;;;;;;4411106;32;20402;-73
2022/03/15 11:42:42;;;;;;;22.70;13.67;;;12.80;99.90;;;;;;4397812;32;20194;-73
2022/03/15 11:45:40;;;;;;;24.10;13.33;;;13.70;99.90;;;;;;4410003;32;20139;-72
2022/03/15 11:48:46;;;;;;;21.63;13.20;;;14.60;99.90;;;;;;4375900;32;20179;-73
2022/03/15 11:51:51;;;;;;;20.80;13.20;;;15.10;99.90;;;;;;4396754;32;20228;-72
2022/03/15 11:54:39;;;;;;;21.27;13.20;;;16.30;94.00;;;;;;4333895;33;20250;-72
2022/03/15 11:57:17;;;;;;;23.13;13.50;;;16.80;90.70;;;;;;4321111;33;20207;-72
2022/03/15 11:59:48;;;;;;;24.40;13.40;;;17.50;86.30;;;;;;4333917;33;20217;-73
2022/03/15 12:02:30;;;;;;;20.37;13.10;;;18.70;77.90;;;;;;4332969;33;20459;-73
2022/03/15 12:04:58;;;;;;;20.30;13.00;;;19.70;69.50;;;;;;4320682;33;20444;-72
2022/03/15 12:07:45;;;;;;;21.50;13.27;;;19.10;67.20;;;;;;4333220;33;20491;-72
2022/03/15 12:10:28;;;;;;;21.07;12.70;;;19.20;68.50;;;;;;4332842;33;20403;-72
2022/03/15 12:13:16;;;;;;;20.40;12.83;;;19.40;66.00;;;;;;4333718;33;20496;-72
2022/03/15 12:15:45;;;;;;;21.87;12.90;;;18.50;66.50;;;;;;4341554;33;20171;-73
2022/03/15 12:21:10;;;;;;;20.37;13.10;;;17.90;70.50;;;;;;4349476;33;20176;-72
2022/03/15 12:23:42;;;;;;;21.73;12.30;;;18.10;69.60;;;;;;4349624;33;20233;-72
2022/03/15 12:26:30;;;;;;;18.43;11.93;;;17.90;70.50;;;;;;4350199;33;20200;-73
2022/03/15 12:29:13;;;;;;;20.40;12.57;;;17.60;70.60;;;;;;4367750;32;20520;-73
2022/03/15 12:31:44;;;;;;;19.87;12.57;;;17.00;72.60;;;;;;4395669;32;20202;-73
2022/03/15 12:34:17;;;;;;;20.97;13.03;;;15.90;76.30;;;;;;4409910;32;20143;-73
2022/03/15 12:36:49;;;;;;;19.00;12.20;;;15.80;83.10;;;;;;4409382;32;20520;-72
2022/03/15 12:39:20;;;;;;;21.30;13.00;;;16.70;80.30;;;;;;4396090;32;20224;-73
2022/03/15 12:41:49;;;;;;;19.33;12.40;;;16.80;75.80;;;;;;4409012;32;20143;-73
2022/03/15 12:44:46;;;;;;;20.63;12.97;;;16.50;77.60;;;;;;4394968;32;20179;-73
2022/03/15 12:47:18;;;;;;;17.70;12.23;;;15.60;80.90;;;;;;4409007;32;20182;-72
2022/03/15 12:50:09;;;;;;;21.17;12.47;;;15.50;82.20;;;;;;4410485;32;20153;-73
2022/03/15 12:52:49;;;;;;;19.47;12.23;;;15.20;85.10;;;;;;4410054;32;20520;-71